EW5490 Weather Reports


Display with metric or nautical units.
time (UTC)temp
F
wind
direction
speed
MPH
gust
MPH
rain 1hr
in
rain 24hr
in
rain mn
in
humidity
%
barometer
mb
20190824123001 78 295 5.0 11.0 0.00 0.00 0.00 26 1017.3
20190824121735 77 313 5.0 12.0 0.00 0.00 0.00 28 1017.4
20190824120218 78 351 6.0 11.0 0.00 0.00 0.00 30 1017.6
20190824114621 78 335 4.0 12.0 0.00 0.00 0.00 27 1017.8
20190824113235 78 336 4.0 12.0 0.00 0.00 0.00 26 1018.0
20190824111612 78 292 6.0 10.0 0.00 0.00 0.00 26 1018.2
20190824110144 78 304 5.0 10.0 0.00 0.00 0.00 26 1018.5
20190824104601 77 308 5.0 10.0 0.00 0.00 0.00 28 1018.8
20190824103126 76 306 4.0 10.0 0.00 0.00 0.00 29 1018.9
20190824101607 76 338 3.0 8.0 0.00 0.00 0.00 30 1019.3
20190824100055 76 350 2.0 8.0 0.00 0.00 0.00 36 1019.5
20190824094629 76 360 3.0 6.0 0.00 0.00 0.00 28 1019.7
20190824093125 75 360 2.0 5.0 0.00 0.00 0.00 30 1019.8
20190824091545 74 360 2.0 8.0 0.00 0.00 0.00 29 1019.9
20190824090130 72 5 1.0 4.0 0.00 0.00 0.00 39 1019.8
20190824084548 73 5 2.0 5.0 0.00 0.00 0.00 31 1020.1
20190824083115 72 5 3.0 8.0 0.00 0.00 0.00 30 1020.0
20190824081603 71 17 4.0 9.0 0.00 0.00 0.00 28 1020.1
20190824080030 71 42 4.0 9.0 0.00 0.00 0.00 28 1020.1
20190824074525 71 78 3.0 8.0 0.00 0.00 0.00 29 1020.0
20190824073019 70 92 2.0 7.0 0.00 0.00 0.00 30 1020.0
20190824071525 69 95 2.0 6.0 0.00 0.00 0.00 31 1020.0
20190824070029 66 128 3.0 5.0 0.00 0.00 0.00 35 1019.9
20190824064539 64 141 1.0 4.0 0.00 0.00 0.00 36 1019.9
20190824063045 63 141 1.0 3.0 0.00 0.00 0.00 37 1019.9
20190824061532 62 141 0.0 3.0 0.00 0.00 0.00 36 1019.8
20190824060023 64 132 0.0 4.0 0.00 0.00 0.00 31 1019.7
20190824054536 66 132 2.0 5.0 0.00 0.00 0.00 26 1019.7
20190824053013 67 132 1.0 4.0 0.00 0.00 0.00 24 1019.5
20190824051516 66 132 1.0 7.0 0.00 0.00 0.00 24 1019.4
20190824050014 67 132 3.0 7.0 0.00 0.00 0.00 25 1019.3
20190824044511 66 182 3.0 5.0 0.00 0.01 0.00 25 1019.3
20190824043010 65 182 1.0 4.0 0.00 0.01 0.00 25 1019.2
20190824041526 64 182 2.0 3.0 0.00 0.01 0.00 26 1019.2
20190824040007 63 182 1.0 3.0 0.00 0.01 0.00 27 1019.1
20190824034503 64 182 1.0 2.0 0.00 0.01 0.00 27 1019.2
20190824033220 65 182 1.0 5.0 0.00 0.01 0.00 22 1019.3
20190824031717 66 182 2.0 6.0 0.00 0.01 0.00 24 1019.3
20190824030334 67 182 2.0 6.0 0.00 0.01 0.00 25 1019.4
20190824024706 70 182 1.0 3.0 0.00 0.01 0.00 19 1019.3
20190824023205 69 182 2.0 4.0 0.00 0.01 0.00 21 1019.2
20190824021724 69 182 2.0 4.0 0.00 0.01 0.00 21 1019.5
20190824020225 69 182 1.0 2.0 0.00 0.01 0.00 20 1019.6
20190824014709 70 182 0.0 2.0 0.00 0.01 0.00 17 1019.8
20190824013150 70 182 2.0 4.0 0.00 0.01 0.00 16 1019.8
20190824011632 70 182 2.0 3.0 0.00 0.01 0.00 15 1019.8
20190824010134 68 182 2.0 3.0 0.00 0.01 0.00 17 1020.1
20190824004743 67 182 1.0 3.0 0.00 0.01 0.00 20 1020.1
20190824003106 67 182 2.0 3.0 0.00 0.01 0.00 21 1020.3
20190824001631 66 182 1.0 3.0 0.00 0.01 0.00 22 1020.5
20190824000145 66 182 0.0 2.0 0.00 0.01 0.00 25 1020.4
20190823234608 65 182 0.0 2.0 0.00 0.01 0.00 27 1020.4
20190823233050 65 182 0.0 2.0 0.00 0.01 0.00 27 1020.6
20190823231609 66 182 1.0 2.0 0.00 0.01 0.00 24 1020.5
20190823230134 67 182 0.0 1.0 0.00 0.01 0.00 23 1020.6
20190823224613 69 182 1.0 3.0 0.00 0.02 0.00 19 1020.5
20190823223114 68 182 2.0 3.0 0.00 0.02 0.00 20 1020.6
20190823221544 66 182 0.0 2.0 0.00 0.02 0.00 24 1020.7
20190823220052 65 182 0.0 3.0 0.00 0.02 0.00 32 1020.8
20190823214617 65 182 0.0 1.0 0.00 0.02 0.02 33 1020.8
20190823213055 64 182 0.0 1.0 0.00 0.02 0.02 35 1020.9
20190823211559 64 182 0.0 2.0 0.00 0.02 0.02 43 1021.0
20190823210102 63 182 1.0 2.0 0.00 0.02 0.02 43 1021.2
20190823204559 63 182 0.0 1.0 0.00 0.02 0.02 39 1021.3
20190823203058 64 182 0.0 0.0 0.00 0.02 0.02 36 1021.2
20190823201540 65 182 0.0 1.0 0.00 0.02 0.02 31 1021.2
20190823200030 67 182 0.0 0.0 0.00 0.02 0.02 26 1021.1
20190823194541 69 182 0.0 4.0 0.00 0.02 0.02 24 1021.1
20190823193049 69 182 3.0 5.0 0.00 0.02 0.02 24 1021.2
20190823191557 68 182 2.0 4.0 0.00 0.02 0.02 25 1021.2
20190823190039 64 182 2.0 3.0 0.00 0.02 0.02 33 1021.2
20190823184606 63 182 0.0 1.0 0.00 0.02 0.02 43 1021.2
20190823183020 62 182 0.0 2.0 0.00 0.02 0.02 47 1021.2
20190823181521 62 182 0.0 1.0 0.00 0.02 0.02 62 1021.2
20190823180014 62 182 0.0 1.0 0.00 0.02 0.02 66 1021.0
20190823174531 62 182 0.0 1.0 0.00 0.02 0.02 64 1020.9
20190823173028 64 182 0.0 1.0 0.00 0.02 0.02 70 1020.9
20190823171548 65 182 0.0 0.0 0.00 0.02 0.02 70 1020.8
20190823170011 66 182 0.0 2.0 0.00 0.02 0.02 68 1020.7
20190823164508 67 182 0.0 1.0 0.00 0.02 0.02 66 1020.7
20190823163008 69 182 0.0 1.0 0.00 0.02 0.02 63 1020.8
20190823161508 71 182 0.0 1.0 0.00 0.02 0.02 60 1020.6
20190823160007 74 182 0.0 1.0 0.00 0.02 0.02 57 1020.5
20190823154508 76 182 0.0 1.0 0.00 0.02 0.02 56 1020.6
20190823153010 76 182 0.0 1.0 0.00 0.02 0.02 56 1020.6
20190823151505 77 182 0.0 2.0 0.00 0.02 0.02 54 1020.5
20190823150016 78 182 0.0 3.0 0.00 0.02 0.02 52 1020.6
20190823144517 80 182 1.0 5.0 0.00 0.02 0.02 49 1020.6
20190823143005 80 182 1.0 5.0 0.00 0.02 0.02 50 1020.7
20190823141505 78 182 2.0 6.0 0.00 0.02 0.02 53 1020.8
20190823140002 80 178 1.0 6.0 0.00 0.02 0.02 51 1020.6
20190823134638 78 178 2.0 7.0 0.00 0.02 0.02 55 1020.7
20190823133129 78 174 5.0 7.0 0.00 0.02 0.02 55 1020.7
20190823131711 80 148 2.0 6.0 0.00 0.02 0.02 53 1020.7
20190823130142 81 148 2.0 6.0 0.00 0.02 0.02 53 1020.7
20190823124638 80 148 0.0 6.0 0.00 0.02 0.02 54 1020.8